Accueil
METAR-TAF:

METAR-TAF

Aéroports :

Oswego County Airport

Fulton, New York, États-Unis

latitude: 43-21-03N, longitude: 076-23-17W, altitude: 145 m

Observation

Le bulletin a été fait il y a 8 minutes, à 15:09 UTC
Vent 8 kt de ouest/nord-ouest
Température 24°C
Humidité 69%
Pression 1010 hPa
Visibilité: 16.1 km
Nuages épars à une hauteur de 2100 ft
Nuages épars à une hauteur de 2600 ft
Ciel couvert à une hauteur de 9000 ft

METAR: KFZY 131509Z AUTO 29008KT 10SM SCT021 SCT026 OVC090 24/18 A2983 RMK AO2 T02390178

Heure: 11:17 (15:17 UTC)


TAF: absent

Observations et prévisions météorologiques de plus de 4000 aéroports (messages METAR et TAF).

Les stations disponibles sont représentées par des disques jaunes et rouges sur la carte.

Passer la souris dessus pour voir le nom de la station.

Cliquer dessus pour voir les observations et prévisions météorologiques.

Pour changer de carte: cliquez sur les boutons verts avec une croix noire pour zoomer, sur le bouton vert avec un tiret pour effectuer un zoom arrière, ou sur les flèches vertes pour les cartes adjacentes.


METAR-TAF: